Time;durP1;ratioP1;P1;durP2;ratioP2;P2;SDS_P1;SDS_P2;PMS_P1;PMS_P2;Temp;Humidity;BMP_temperature;BMP_pressure;BME280_temperature;BME280_humidity;BME280_pressure;Samples;Min_cycle;Max_cycle;Signal;HPM_P1;HPM_P2
2023/09/15 00:01:35;;;;;;;;;;;19.60;61.20;;;15.33;100.00;95665.81;5013118;28;20302;-50
2023/09/15 00:04:06;;;;;;;;;;;19.50;61.10;;;15.24;100.00;95663.78;5011270;28;19917;-49
2023/09/15 00:06:36;;;;;;;;;;;19.50;61.20;;;15.18;100.00;95654.22;5011455;28;19909;-51
2023/09/15 00:09:08;;;;;;;;;;;19.40;61.20;;;15.14;100.00;95655.91;5012017;28;19913;-49
2023/09/15 00:11:40;;;;;;;;;;;19.40;61.30;;;15.12;100.00;95654.59;5013007;28;19971;-49
2023/09/15 00:14:09;;;;;;;;;;;19.30;61.30;;;15.08;100.00;95656.28;5010981;28;19909;-49
2023/09/15 00:16:35;;;;;;;;;;;19.20;61.40;;;15.04;100.00;95651.50;5012808;28;20279;-52
2023/09/15 00:19:03;;;;;;;;;;;19.20;61.40;;;15.00;100.00;95657.72;5012608;28;20402;-50
2023/09/15 00:21:29;;;;;;;;;;;19.20;61.50;;;14.95;100.00;95653.22;5011769;28;19936;-49
2023/09/15 00:23:54;;;;;;;;;;;19.10;61.60;;;14.85;100.00;95649.88;5011977;28;20389;-49
2023/09/15 00:26:23;;;;;;;;;;;19.00;61.60;;;14.81;100.00;95653.13;5011538;28;19909;-50
2023/09/15 00:28:50;;;;;;;;;;;19.00;61.80;;;14.79;100.00;95646.47;5012534;28;19913;-52
2023/09/15 00:31:16;;;;;;;;;;;19.00;62.00;;;14.77;100.00;95654.81;5012766;28;20003;-48
2023/09/15 00:33:41;;;;;;;;;;;19.00;62.10;;;14.79;100.00;95643.78;5011062;28;20360;-50
2023/09/15 00:36:07;;;;;;;;;;;18.90;62.20;;;14.82;100.00;95643.22;5012426;28;19916;-48
2023/09/15 00:38:34;;;;;;;;;;;18.90;62.30;;;14.85;100.00;95637.25;5011791;28;19959;-50
2023/09/15 00:41:01;;;;;;;;;;;18.90;62.40;;;14.86;100.00;95641.56;5012289;28;19970;-47
2023/09/15 00:43:26;;;;;;;;;;;18.90;62.50;;;14.85;100.00;95644.50;4974636;28;19909;-49
2023/09/15 00:45:52;;;;;;;;;;;18.90;62.60;;;14.83;100.00;95642.13;5011600;28;19909;-51
2023/09/15 00:48:18;;;;;;;;;;;18.90;62.70;;;14.80;100.00;95640.81;5012145;28;19913;-49
2023/09/15 00:50:45;;;;;;;;;;;18.90;62.90;;;14.76;100.00;95644.38;5011385;28;19944;-49
2023/09/15 00:53:19;;;;;;;;;;;18.90;62.80;;;14.75;100.00;95650.81;5010141;28;19913;-49
2023/09/15 00:55:51;;;;;;;;;;;18.90;62.90;;;14.66;100.00;95645.31;5010348;28;19920;-53
2023/09/15 00:58:19;;;;;;;;;;;18.80;62.80;;;14.64;100.00;95635.97;5010458;28;20340;-48
2023/09/15 01:00:46;;;;;;;;;;;18.80;62.90;;;14.67;100.00;95641.56;5012478;28;19913;-53
2023/09/15 01:03:18;;;;;;;;;;;18.80;62.90;;;14.70;100.00;95634.81;5010644;28;19923;-53
2023/09/15 01:05:45;;;;;;;;;;;18.80;62.90;;;14.67;100.00;95638.09;4993735;28;20268;-53
2023/09/15 01:08:12;;;;;;;;;;;18.80;62.90;;;14.66;100.00;95636.47;5012182;28;19990;-50
2023/09/15 01:10:39;;;;;;;;;;;18.80;63.00;;;14.57;100.00;95633.63;5011498;28;19945;-50
2023/09/15 01:13:05;;;;;;;;;;;18.80;63.00;;;14.54;100.00;95644.91;5011065;28;19909;-52
2023/09/15 01:15:51;;;;;;;;;;;18.80;63.10;;;14.54;100.00;95636.88;5009801;28;20016;-51
2023/09/15 01:18:52;;;;;;;;;;;18.70;63.00;;;14.51;100.00;95640.16;5009372;28;19948;-46
2023/09/15 01:22:12;;;;;;;;;;;18.70;63.10;;;14.49;100.00;95635.03;5009020;28;20364;-48
2023/09/15 01:25:10;;;;;;;;;;;18.70;63.10;;;14.51;100.00;95637.47;4994892;28;19999;-49
2023/09/15 01:28:00;;;;;;;;;;;18.60;63.10;;;14.51;100.00;95632.91;5007128;28;19916;-46
2023/09/15 01:30:31;;;;;;;;;;;18.60;63.20;;;14.51;100.00;95635.59;5009579;28;20260;-51
2023/09/15 01:32:59;;;;;;;;;;;18.60;63.30;;;14.49;100.00;95636.94;5008856;28;19908;-48
2023/09/15 01:35:25;;;;;;;;;;;18.60;63.30;;;14.50;100.00;95639.31;5011207;28;19916;-48
2023/09/15 01:37:51;;;;;;;;;;;18.60;63.30;;;14.53;100.00;95632.63;5010784;28;20387;-49
2023/09/15 01:40:17;;;;;;;;;;;18.70;63.40;;;14.53;100.00;95635.28;5011301;28;19909;-46
2023/09/15 01:42:50;;;;;;;;;;;18.60;63.30;;;14.50;100.00;95628.59;5010777;28;20387;-48
2023/09/15 01:45:16;;;;;;;;;;;18.70;63.30;;;14.50;100.00;95631.28;5010050;28;19913;-53
2023/09/15 01:47:42;;;;;;;;;;;18.70;63.30;;;14.53;100.00;95632.63;5010989;28;19924;-48
2023/09/15 01:50:11;;;;;;;;;;;18.70;63.30;;;14.50;100.00;95630.47;5008916;28;19912;-49
2023/09/15 01:52:37;;;;;;;;;;;18.70;63.50;;;14.52;100.00;95634.50;5008938;28;19913;-51
2023/09/15 01:55:07;;;;;;;;;;;18.70;63.60;;;14.54;100.00;95637.69;5009262;28;19931;-50
2023/09/15 01:57:33;;;;;;;;;;;18.70;63.60;;;14.57;100.00;95636.31;5009788;28;20445;-47
2023/09/15 01:59:59;;;;;;;;;;;18.70;63.60;;;14.58;100.00;95636.03;5009949;28;19956;-48
2023/09/15 02:02:25;;;;;;;;;;;18.80;63.70;;;14.56;100.00;95619.44;5005513;28;19925;-49
2023/09/15 02:04:50;;;;;;;;;;;18.70;63.70;;;14.58;100.00;95624.53;4991394;28;20007;-52
2023/09/15 02:07:16;;;;;;;;;;;18.70;63.70;;;14.57;100.00;95626.41;4991533;28;19967;-46
2023/09/15 02:09:42;;;;;;;;;;;18.80;63.80;;;14.57;100.00;95634.44;4990631;28;19921;-47
2023/09/15 02:12:08;;;;;;;;;;;18.80;63.80;;;14.62;100.00;95632.78;4990797;28;19917;-49
2023/09/15 02:14:34;;;;;;;;;;;18.80;64.80;;;14.68;100.00;95635.09;4990148;28;20039;-49
2023/09/15 02:17:01;;;;;;;;;;;18.80;64.00;;;14.75;100.00;95640.09;4993303;28;19909;-45
2023/09/15 02:19:28;;;;;;;;;;;18.80;64.00;;;14.75;100.00;95635.53;4995097;28;19910;-51
2023/09/15 02:21:54;;;;;;;;;;;18.80;64.00;;;14.74;100.00;95638.50;4993032;28;19920;-47
2023/09/15 02:24:20;;;;;;;;;;;18.80;64.00;;;14.76;100.00;95641.69;4995180;28;19910;-50
2023/09/15 02:26:46;;;;;;;;;;;18.90;64.10;;;14.73;100.00;95639.59;4994401;28;20295;-49
2023/09/15 02:29:13;;;;;;;;;;;18.90;64.10;;;14.73;100.00;95629.69;4994433;28;20071;-48
2023/09/15 02:31:40;;;;;;;;;;;18.90;64.10;;;14.73;100.00;95631.56;4993437;28;19999;-47
2023/09/15 02:34:05;;;;;;;;;;;18.90;64.10;;;14.78;100.00;95624.22;4993929;28;20376;-46
2023/09/15 02:36:31;;;;;;;;;;;18.90;64.10;;;14.79;100.00;95628.53;4994716;28;19909;-46
2023/09/15 02:38:57;;;;;;;;;;;18.90;64.10;;;14.78;100.00;95631.47;4994021;28;19916;-50
2023/09/15 02:41:23;;;;;;;;;;;18.80;64.10;;;14.76;100.00;95622.91;4994840;28;20019;-47
2023/09/15 02:43:49;;;;;;;;;;;18.80;64.10;;;14.74;100.00;95619.75;4994270;28;19916;-50
2023/09/15 02:46:15;;;;;;;;;;;18.80;64.10;;;14.71;100.00;95618.44;4993969;28;20439;-49
2023/09/15 02:48:43;;;;;;;;;;;18.80;64.10;;;14.64;100.00;95618.00;4994591;28;20007;-47
2023/09/15 02:51:09;;;;;;;;;;;18.70;64.10;;;14.62;100.00;95608.66;4993683;28;19909;-52
2023/09/15 02:53:35;;;;;;;;;;;18.70;64.20;;;14.60;100.00;95616.19;4994082;28;19913;-51
2023/09/15 02:56:04;;;;;;;;;;;18.70;64.30;;;14.61;100.00;95612.44;4993546;28;19909;-48
2023/09/15 02:58:32;;;;;;;;;;;18.70;64.40;;;14.61;100.00;95618.59;4993036;28;20276;-48
2023/09/15 03:00:58;;;;;;;;;;;18.70;64.40;;;14.58;100.00;95609.22;4994545;28;19949;-48
2023/09/15 03:03:24;;;;;;;;;;;18.70;64.50;;;14.56;100.00;95616.75;5005193;28;19925;-49
2023/09/15 03:06:10;;;;;;;;;;;18.70;64.50;;;14.57;100.00;95617.53;5014131;28;19909;-51
2023/09/15 03:08:37;;;;;;;;;;;18.70;64.50;;;14.57;100.00;95610.31;5012813;28;19913;-51
2023/09/15 03:11:03;;;;;;;;;;;18.70;64.50;;;14.57;100.00;95615.69;5012943;28;19909;-52
2023/09/15 03:13:29;;;;;;;;;;;18.60;64.50;;;14.55;100.00;95609.81;5005422;28;19916;-51
2023/09/15 03:15:55;;;;;;;;;;;18.60;64.50;;;14.52;100.00;95607.69;5013059;28;19913;-48
2023/09/15 03:18:21;;;;;;;;;;;18.60;64.50;;;14.48;100.00;95614.69;5014090;28;19909;-50
2023/09/15 03:20:47;;;;;;;;;;;18.60;64.50;;;14.52;100.00;95613.06;5013052;28;19909;-52
2023/09/15 03:23:14;;;;;;;;;;;18.60;64.50;;;14.50;100.00;95606.34;5013203;28;19959;-50
2023/09/15 03:25:40;;;;;;;;;;;18.60;64.50;;;14.51;100.00;95616.03;5013529;28;19914;-54
2023/09/15 03:28:05;;;;;;;;;;;18.60;64.60;;;14.56;100.00;95615.97;5002213;28;19913;-54
2023/09/15 03:30:31;;;;;;;;;;;18.60;64.60;;;14.59;100.00;95612.69;5011816;28;19949;-52
2023/09/15 03:32:57;;;;;;;;;;;18.70;64.70;;;14.60;100.00;95608.94;5011479;28;19963;-50
2023/09/15 03:35:22;;;;;;;;;;;18.70;64.70;;;14.60;100.00;95611.59;5013507;28;19913;-50
2023/09/15 03:37:48;;;;;;;;;;;18.70;64.70;;;14.64;100.00;95609.97;5013473;28;19909;-51
2023/09/15 03:40:14;;;;;;;;;;;18.80;64.80;;;14.68;100.00;95620.91;5012381;28;19916;-54
2023/09/15 03:42:40;;;;;;;;;;;18.80;64.70;;;14.71;100.00;95618.44;5012999;28;19913;-53
2023/09/15 03:45:09;;;;;;;;;;;18.80;64.70;;;14.74;100.00;95609.81;5012113;28;19909;-52
2023/09/15 03:47:35;;;;;;;;;;;18.90;65.50;;;14.76;100.00;95612.19;5013374;28;19909;-48
2023/09/15 03:50:07;;;;;;;;;;;18.90;64.70;;;14.78;100.00;95608.13;5012195;28;19974;-53
2023/09/15 03:52:33;;;;;;;;;;;18.90;64.70;;;14.81;100.00;95604.88;5012564;28;20340;-54
2023/09/15 03:55:00;;;;;;;;;;;19.00;64.70;;;14.84;100.00;95603.50;5013229;28;19992;-53
2023/09/15 03:57:27;;;;;;;;;;;19.00;64.60;;;14.86;100.00;95603.22;5012107;28;20004;-53
2023/09/15 03:59:53;;;;;;;;;;;19.00;64.60;;;14.87;100.00;95610.97;5010198;28;20518;-48
2023/09/15 04:02:19;;;;;;;;;;;19.00;64.60;;;14.89;100.00;95616.84;5012527;28;20003;-48
2023/09/15 04:04:45;;;;;;;;;;;19.10;64.60;;;14.90;100.00;95612.28;5008081;28;19913;-47
2023/09/15 04:07:12;;;;;;;;;;;19.10;64.70;;;14.92;100.00;95615.47;5006619;28;19920;-47
2023/09/15 04:09:38;;;;;;;;;;;19.10;64.60;;;14.93;100.00;95611.69;5008026;28;19913;-49
2023/09/15 04:12:04;;;;;;;;;;;19.10;64.50;;;14.95;100.00;95610.31;5006736;28;20372;-52
2023/09/15 04:14:34;;;;;;;;;;;19.10;64.50;;;14.90;100.00;95610.38;5004080;28;19963;-47
2023/09/15 04:17:03;;;;;;;;;;;19.10;64.50;;;14.92;100.00;95618.16;5006935;28;19909;-54
2023/09/15 04:19:30;;;;;;;;;;;19.20;64.60;;;14.94;100.00;95613.28;5005296;28;19909;-52
2023/09/15 04:21:55;;;;;;;;;;;19.20;64.60;;;14.96;100.00;95613.78;4992234;28;19909;-54
2023/09/15 04:24:21;;;;;;;;;;;19.20;64.60;;;14.98;100.00;95617.78;5011387;28;20380;-50
2023/09/15 04:26:47;;;;;;;;;;;19.20;64.60;;;14.99;100.00;95614.00;5012113;28;19916;-51
2023/09/15 04:29:13;;;;;;;;;;;19.20;64.60;;;14.99;100.00;95614.00;5018849;28;19912;-52
2023/09/15 04:31:39;;;;;;;;;;;19.20;64.60;;;15.00;100.00;95617.47;5013436;28;19909;-50
2023/09/15 04:34:05;;;;;;;;;;;19.20;64.60;;;15.00;100.00;95617.47;5005335;28;19913;-49
2023/09/15 04:36:31;;;;;;;;;;;19.20;64.60;;;15.00;100.00;95612.13;5007741;28;19916;-54
2023/09/15 04:38:58;;;;;;;;;;;19.20;64.60;;;14.99;100.00;95613.22;5010126;28;19913;-54
2023/09/15 04:41:24;;;;;;;;;;;19.20;64.60;;;14.98;100.00;95608.94;5005470;28;19917;-50
2023/09/15 04:43:51;;;;;;;;;;;19.20;64.50;;;14.98;100.00;95619.69;5010784;28;19909;-52
2023/09/15 04:46:18;;;;;;;;;;;19.20;64.50;;;14.97;100.00;95618.84;5012543;28;19966;-51
2023/09/15 04:48:44;;;;;;;;;;;19.20;64.50;;;14.94;100.00;95613.28;5005175;28;19913;-54
2023/09/15 04:51:10;;;;;;;;;;;19.10;64.50;;;14.89;100.00;95624.09;5005636;28;19920;-52
2023/09/15 04:53:36;;;;;;;;;;;19.10;64.50;;;14.85;100.00;95623.84;5010086;28;20294;-48
2023/09/15 04:56:03;;;;;;;;;;;19.10;64.50;;;14.82;100.00;95616.38;5009862;28;19913;-52
2023/09/15 04:58:29;;;;;;;;;;;19.00;64.50;;;14.77;100.00;95616.47;5009929;28;19947;-47
2023/09/15 05:00:59;;;;;;;;;;;19.00;64.60;;;14.69;100.00;95617.13;5009613;28;20327;-51
2023/09/15 05:03:25;;;;;;;;;;;18.90;64.50;;;14.68;100.00;95620.91;5010847;28;19918;-48
2023/09/15 05:05:55;;;;;;;;;;;18.90;64.60;;;14.61;100.00;95621.25;5005007;28;20320;-49
2023/09/15 05:08:21;;;;;;;;;;;18.90;64.60;;;14.58;100.00;95625.31;5005226;28;19913;-48
2023/09/15 05:10:48;;;;;;;;;;;18.80;64.60;;;14.57;100.00;95625.59;5006941;28;19913;-49
2023/09/15 05:13:15;;;;;;;;;;;18.90;64.80;;;14.63;100.00;95631.69;5008995;28;19936;-47
2023/09/15 05:15:40;;;;;;;;;;;18.80;64.80;;;14.67;100.00;95630.03;5011890;28;19947;-47
2023/09/15 05:18:06;;;;;;;;;;;18.90;64.90;;;14.73;100.00;95636.94;5004059;28;19949;-49
2023/09/15 05:20:33;;;;;;;;;;;18.90;65.60;;;14.73;100.00;95645.75;5011757;28;19909;-48
2023/09/15 05:22:59;;;;;;;;;;;19.00;64.90;;;14.79;100.00;95651.84;5012225;28;20007;-50
2023/09/15 05:25:25;;;;;;;;;;;19.00;64.80;;;14.84;100.00;95654.44;5012455;28;20015;-47
2023/09/15 05:27:51;;;;;;;;;;;19.10;64.80;;;14.86;100.00;95663.00;5011324;28;20331;-51
2023/09/15 05:30:17;;;;;;;;;;;19.10;64.70;;;14.93;100.00;95658.06;5001518;28;20000;-49
2023/09/15 05:32:43;;;;;;;;;;;19.20;64.70;;;14.96;100.00;95656.72;5010953;28;19927;-48
2023/09/15 05:35:10;;;;;;;;;;;19.20;64.70;;;14.96;100.00;95656.72;5015217;28;20371;-47
2023/09/15 05:37:36;;;;;;;;;;;19.30;64.60;;;15.02;100.00;95658.22;5009201;28;19916;-47
2023/09/15 05:40:03;;;;;;;;;;;19.30;64.40;;;15.01;100.00;95659.28;5009102;28;19917;-47
2023/09/15 05:42:29;;;;;;;;;;;19.40;64.40;;;14.99;100.00;95661.50;5011730;28;20380;-47
2023/09/15 05:44:54;;;;;;;;;;;19.40;64.40;;;14.98;100.00;95660.69;5011208;28;19999;-49
2023/09/15 05:47:24;;;;;;;;;;;19.40;64.30;;;14.98;100.00;95655.34;5011634;28;19917;-49
2023/09/15 05:49:49;;;;;;;;;;;19.40;64.30;;;15.02;100.00;95660.91;4998398;28;19952;-48
2023/09/15 05:52:15;;;;;;;;;;;19.40;64.20;;;15.06;100.00;95661.13;5009249;28;19945;-47
2023/09/15 05:54:41;;;;;;;;;;;19.40;64.20;;;15.12;100.00;95663.44;5020038;28;19915;-47
2023/09/15 05:57:07;;;;;;;;;;;19.50;64.10;;;15.19;100.00;95660.38;5008855;28;19916;-51
2023/09/15 05:59:33;;;;;;;;;;;19.50;64.10;;;15.22;100.00;95674.00;5011499;28;19923;-51
2023/09/15 06:01:58;;;;;;;;;;;19.60;64.10;;;15.27;100.00;95663.22;5011795;28;19932;-47
2023/09/15 06:04:24;;;;;;;;;;;19.60;64.10;;;15.28;100.00;95666.69;5009105;28;19920;-46
2023/09/15 06:06:50;;;;;;;;;;;19.60;64.00;;;15.34;100.00;95665.53;5011788;28;20280;-49
2023/09/15 06:09:16;;;;;;;;;;;19.70;64.00;;;15.38;100.00;95671.09;5009555;28;20341;-51
2023/09/15 06:11:41;;;;;;;;;;;19.80;64.00;;;15.33;100.00;95663.16;4990715;28;20349;-46
2023/09/15 06:14:07;;;;;;;;;;;19.80;63.80;;;15.39;100.00;95672.72;5010972;28;19920;-54
2023/09/15 06:16:36;;;;;;;;;;;19.80;63.70;;;15.38;100.00;95663.03;5014700;28;20378;-48
2023/09/15 06:19:02;;;;;;;;;;;19.90;63.70;;;15.40;100.00;95675.09;5011280;28;19913;-51
2023/09/15 06:21:29;;;;;;;;;;;19.80;63.60;;;15.45;100.00;95669.66;5008983;28;19948;-48
2023/09/15 06:23:55;;;;;;;;;;;19.90;63.50;;;15.48;100.00;95671.75;4978258;28;19909;-50
2023/09/15 06:26:21;;;;;;;;;;;20.00;63.50;;;15.56;100.00;95677.53;4978426;28;19917;-48
2023/09/15 06:28:47;;;;;;;;;;;20.00;63.50;;;15.60;100.00;95671.25;5005590;28;19913;-52
2023/09/15 06:31:13;;;;;;;;;;;20.00;63.40;;;15.65;100.00;95676.56;5009160;28;19981;-53
2023/09/15 06:33:39;;;;;;;;;;;20.10;63.40;;;15.72;100.00;95671.63;5009532;28;19952;-54
2023/09/15 06:36:05;;;;;;;;;;;20.20;63.40;;;15.77;100.00;95678.03;5001326;28;20380;-51
2023/09/15 06:38:32;;;;;;;;;;;20.20;63.20;;;15.84;100.00;95676.53;5007110;28;19909;-51
2023/09/15 06:40:58;;;;;;;;;;;20.40;63.20;;;15.91;100.00;95676.94;5009614;28;20283;-47
2023/09/15 06:43:24;;;;;;;;;;;20.50;63.10;;;15.95;100.00;95675.28;5008279;28;19917;-51
2023/09/15 06:45:49;;;;;;;;;;;20.60;63.10;;;15.96;100.00;95681.44;5009386;28;20360;-52
2023/09/15 06:48:15;;;;;;;;;;;20.60;62.90;;;16.05;100.00;95685.03;5009143;28;20398;-53
2023/09/15 06:50:41;;;;;;;;;;;20.70;62.90;;;16.13;100.00;95686.22;5001967;28;20334;-49
2023/09/15 06:53:06;;;;;;;;;;;20.70;62.80;;;16.18;100.00;95688.84;5002257;28;20338;-49
2023/09/15 06:55:33;;;;;;;;;;;20.80;62.70;;;16.21;100.00;95682.06;4994113;28;19910;-50
2023/09/15 06:57:59;;;;;;;;;;;20.80;62.70;;;16.23;100.00;95686.03;5004234;28;19948;-50
2023/09/15 07:00:24;;;;;;;;;;;20.80;62.60;;;16.31;100.00;95687.25;5006661;28;19917;-48
2023/09/15 07:02:50;;;;;;;;;;;20.90;62.60;;;16.39;100.00;95684.66;5010132;28;19917;-49
2023/09/15 07:05:16;;;;;;;;;;;20.90;62.50;;;16.45;100.00;95689.94;5009990;28;19914;-47
2023/09/15 07:07:42;;;;;;;;;;;21.00;62.60;;;16.48;100.00;95690.13;5002374;28;19916;-47
2023/09/15 07:10:08;;;;;;;;;;;21.00;62.40;;;16.47;100.00;95688.53;5013630;28;19917;-52
2023/09/15 07:12:34;;;;;;;;;;;21.10;62.40;;;16.56;100.00;95691.34;5013296;28;19909;-46
2023/09/15 07:15:03;;;;;;;;;;;21.30;62.20;;;16.63;100.00;95695.19;5013401;28;19955;-47
2023/09/15 07:17:29;;;;;;;;;;;21.40;62.10;;;16.78;100.00;95690.66;5014429;28;19909;-46
2023/09/15 07:19:55;;;;;;;;;;;21.50;61.90;;;16.86;100.00;95679.19;5013478;28;20395;-53
2023/09/15 07:22:20;;;;;;;;;;;21.70;61.70;;;16.84;100.00;95679.47;5014008;28;20314;-46
2023/09/15 07:24:46;;;;;;;;;;;21.80;61.40;;;16.78;100.00;95675.31;5014438;28;19916;-46
2023/09/15 07:27:12;;;;;;;;;;;22.00;61.20;;;16.88;100.00;95682.34;5013171;28;20232;-48
2023/09/15 07:29:38;;;;;;;;;;;22.10;60.90;;;17.10;100.00;95681.59;5014132;28;20394;-46
2023/09/15 07:32:06;;;;;;;;;;;22.30;60.80;;;17.21;99.54;95679.50;5013013;28;20000;-51
2023/09/15 07:34:32;;;;;;;;;;;22.50;60.50;;;17.38;99.31;95679.63;5014134;28;19970;-48
2023/09/15 07:36:59;;;;;;;;;;;22.80;60.20;;;17.58;97.73;95681.84;5014389;28;19986;-47
2023/09/15 07:39:25;;;;;;;;;;;23.00;60.00;;;17.85;96.47;95685.53;5013117;28;19909;-47
2023/09/15 07:41:51;;;;;;;;;;;23.30;59.80;;;18.15;95.21;95680.47;5014225;28;20390;-47
2023/09/15 07:44:17;;;;;;;;;;;23.60;59.60;;;18.46;93.41;95683.13;5012927;28;19917;-46
2023/09/15 07:46:43;;;;;;;;;;;23.90;59.40;;;18.77;91.83;95679.56;5013899;28;20355;-49
2023/09/15 07:49:09;;;;;;;;;;;24.20;59.20;;;19.05;90.47;95691.69;5013776;28;19952;-49
2023/09/15 07:51:35;;;;;;;;;;;24.60;58.90;;;19.21;87.78;95691.22;5013165;28;19913;-49
2023/09/15 07:54:01;;;;;;;;;;;24.80;58.70;;;19.29;87.67;95685.84;4998055;28;19916;-52
2023/09/15 07:56:27;;;;;;;;;;;25.00;58.40;;;19.47;86.26;95689.34;5014559;28;19916;-51
2023/09/15 07:58:53;;;;;;;;;;;25.10;58.20;;;19.53;85.47;95690.78;5006126;28;19909;-52
2023/09/15 08:01:19;;;;;;;;;;;25.20;58.10;;;19.61;85.17;95689.16;5009719;28;19909;-52
2023/09/15 08:03:45;;;;;;;;;;;25.20;58.00;;;19.63;85.05;95687.75;5009753;28;19924;-54
2023/09/15 08:06:13;;;;;;;;;;;25.20;57.80;;;19.65;85.40;95687.47;4998299;28;19949;-53
2023/09/15 08:08:39;;;;;;;;;;;25.20;57.70;;;19.70;86.38;95694.59;5011460;28;19913;-53
2023/09/15 08:11:04;;;;;;;;;;;25.10;57.60;;;19.61;86.01;95687.25;4999276;28;19917;-57
2023/09/15 08:13:30;;;;;;;;;;;25.10;57.60;;;19.68;85.41;95691.41;5002370;28;20287;-56
2023/09/15 08:15:56;;;;;;;;;;;25.10;57.50;;;19.78;85.42;95696.50;5001183;28;19923;-54
2023/09/15 08:18:23;;;;;;;;;;;25.10;57.40;;;19.77;84.64;95692.19;5002015;28;20273;-55
2023/09/15 08:20:49;;;;;;;;;;;25.20;57.40;;;19.76;84.26;95696.03;5001467;28;19916;-55
2023/09/15 08:23:15;;;;;;;;;;;25.30;57.30;;;19.88;83.61;95693.47;5002732;28;19909;-55
2023/09/15 08:25:41;;;;;;;;;;;25.50;57.20;;;19.94;82.50;95689.47;4983701;28;19916;-52
2023/09/15 08:28:08;;;;;;;;;;;25.70;57.00;;;20.06;83.10;95697.72;5000291;28;19961;-51
2023/09/15 08:30:35;;;;;;;;;;;25.90;56.80;;;20.23;81.92;95693.38;5001890;28;20299;-52
2023/09/15 08:33:02;;;;;;;;;;;26.10;56.60;;;20.38;82.53;95698.25;5006098;28;19913;-55
2023/09/15 08:35:29;;;;;;;;;;;26.20;56.40;;;20.56;80.97;95694.38;5008135;28;19916;-51
2023/09/15 08:37:55;;;;;;;;;;;26.40;56.30;;;20.59;80.44;95690.25;4989487;28;19916;-51
2023/09/15 08:40:21;;;;;;;;;;;26.60;56.10;;;20.87;79.37;95696.00;5007688;28;20313;-54
2023/09/15 08:42:48;;;;;;;;;;;26.80;55.90;;;20.96;78.06;95691.28;5007533;28;19917;-54
2023/09/15 08:45:14;;;;;;;;;;;27.00;55.90;;;21.17;76.54;95690.53;5000684;28;19936;-53
2023/09/15 08:47:50;;;;;;;;;;;27.10;55.50;;;21.29;75.34;95687.09;5012526;28;20307;-50
2023/09/15 08:50:17;;;;;;;;;;;27.30;55.30;;;21.52;75.03;95682.16;4993032;28;20861;-51
2023/09/15 08:52:43;;;;;;;;;;;27.60;55.10;;;21.73;74.19;95685.63;5012281;28;20363;-50
2023/09/15 08:55:10;;;;;;;;;;;27.80;54.80;;;21.95;73.43;95679.03;5012788;28;19916;-53
2023/09/15 08:57:39;;;;;;;;;;;28.00;54.60;;;22.20;70.80;95688.06;5006173;28;20193;-54
2023/09/15 09:00:09;;;;;;;;;;;28.40;54.40;;;22.50;71.00;95685.16;4987979;28;19917;-56
2023/09/15 09:02:34;;;;;;;;;;;29.00;54.00;;;23.21;68.35;95683.91;4997366;28;19918;-54
2023/09/15 09:05:00;;;;;;;;;;;29.70;53.50;;;23.67;66.16;95685.25;5004303;28;20055;-54
2023/09/15 09:07:27;;;;;;;;;;;30.40;53.10;;;23.71;64.18;95686.16;5010663;28;19916;-54
2023/09/15 09:09:54;;;;;;;;;;;30.50;52.60;;;23.72;63.65;95682.31;5007396;28;19920;-53
2023/09/15 09:12:21;;;;;;;;;;;30.50;52.20;;;23.81;63.11;95681.34;5012097;28;19920;-53
2023/09/15 09:14:47;;;;;;;;;;;30.50;52.20;;;23.73;63.63;95680.38;5005479;28;19909;-55
2023/09/15 09:17:16;;;;;;;;;;;30.40;51.90;;;23.62;63.14;95682.75;5010227;28;20355;-52
2023/09/15 09:19:42;;;;;;;;;;;30.40;51.50;;;23.71;63.33;95688.09;5011805;28;19968;-50
2023/09/15 09:22:08;;;;;;;;;;;30.40;51.30;;;23.39;64.43;95687.16;4984948;28;20347;-49
2023/09/15 09:24:38;;;;;;;;;;;30.30;51.00;;;23.54;64.18;95689.94;5012113;28;19970;-49
2023/09/15 09:27:12;;;;;;;;;;;30.30;51.00;;;23.62;64.08;95687.41;5007460;28;20438;-54
2023/09/15 09:29:39;;;;;;;;;;;30.20;50.90;;;23.63;63.40;95686.25;4999046;28;20011;-54
2023/09/15 09:32:05;;;;;;;;;;;30.20;51.00;;;23.78;63.11;95691.81;5010170;28;19940;-49
2023/09/15 09:34:31;;;;;;;;;;;30.30;51.00;;;23.88;61.79;95681.53;5011644;28;19931;-57
2023/09/15 09:36:58;;;;;;;;;;;30.40;50.90;;;24.04;61.38;95689.72;5011897;28;20363;-55
2023/09/15 09:39:26;;;;;;;;;;;30.60;50.70;;;24.10;61.33;95686.44;5002244;28;19917;-54
2023/09/15 09:41:52;;;;;;;;;;;30.70;50.50;;;24.12;61.13;95677.91;5011700;28;19915;-55
2023/09/15 09:44:20;;;;;;;;;;;30.70;50.30;;;24.18;60.17;95682.75;4991750;28;19912;-51
2023/09/15 09:46:46;;;;;;;;;;;30.60;50.10;;;24.09;62.41;95673.16;5011609;28;20256;-51
2023/09/15 09:49:13;;;;;;;;;;;30.60;50.20;;;24.12;62.07;95667.81;5011299;28;19921;-51
2023/09/15 09:51:39;;;;;;;;;;;30.70;50.00;;;24.05;62.08;95670.34;5003716;28;19916;-56
2023/09/15 09:54:07;;;;;;;;;;;30.90;49.50;;;24.21;60.56;95673.88;5011293;28;19912;-51
2023/09/15 09:56:33;;;;;;;;;;;31.10;49.30;;;24.33;61.39;95667.56;5006952;28;20288;-54
2023/09/15 09:59:12;;;;;;;;;;;31.10;49.20;;;24.27;60.11;95676.34;5006534;28;19909;-50
2023/09/15 10:01:38;;;;;;;;;;;31.10;49.10;;;24.32;59.46;95676.06;4999138;28;19913;-52
2023/09/15 10:04:07;;;;;;;;;;;31.00;48.90;;;24.30;59.10;95679.16;5006760;23;19921;-45
2023/09/15 10:06:36;;;;;;;;;;;31.00;48.70;;;24.27;58.51;95671.69;4988523;28;19913;-44
2023/09/15 10:09:08;;;;;;;;;;;31.10;48.20;;;24.72;57.90;95675.13;4986328;28;19914;-49
2023/09/15 10:11:36;;;;;;;;;;;31.50;47.80;;;24.89;57.90;95672.06;4983028;28;20011;-49
2023/09/15 10:14:06;;;;;;;;;;;31.80;47.70;;;25.08;57.01;95669.38;4988807;28;19916;-48
2023/09/15 10:16:33;;;;;;;;;;;32.00;47.70;;;24.91;58.09;95664.28;4990827;28;19910;-45
2023/09/15 10:19:04;;;;;;;;;;;32.10;47.50;;;24.71;58.98;95655.28;4991190;28;19913;-47
2023/09/15 10:21:34;;;;;;;;;;;32.20;47.10;;;24.86;59.06;95653.69;4990603;28;20016;-46
2023/09/15 10:24:11;;;;;;;;;;;32.20;47.00;;;25.07;57.80;95656.91;4992450;28;19967;-47
2023/09/15 10:26:41;;;;;;;;;;;32.10;47.00;;;25.46;56.11;95659.69;4989127;28;20283;-47
2023/09/15 10:29:12;;;;;;;;;;;32.40;47.00;;;25.86;55.33;95663.22;4981153;28;19917;-49
2023/09/15 10:31:42;;;;;;;;;;;33.00;46.70;;;26.17;54.50;95659.50;4977428;28;19910;-50
2023/09/15 10:34:09;;;;;;;;;;;33.60;46.40;;;26.29;53.82;95662.84;4979687;28;19909;-45
2023/09/15 10:36:35;;;;;;;;;;;34.10;46.10;;;26.85;52.35;95661.41;4979852;28;19916;-46
2023/09/15 10:39:17;;;;;;;;;;;34.70;45.60;;;27.45;50.77;95657.97;4988494;28;19916;-49
2023/09/15 10:41:44;;;;;;;;;;;35.40;45.20;;;27.64;48.71;95659.75;4994321;28;19996;-48
2023/09/15 10:44:11;;;;;;;;;;;35.50;44.80;;;27.79;47.79;95658.00;4993410;28;20739;-50
2023/09/15 10:46:40;;;;;;;;;;;35.70;44.40;;;28.25;47.28;95654.97;4994216;28;20372;-46
2023/09/15 10:49:18;;;;;;;;;;;36.10;44.20;;;28.55;47.96;95654.88;4994287;28;19992;-46
2023/09/15 10:51:53;;;;;;;;;;;36.30;44.10;;;28.59;46.75;95648.25;4993638;28;19940;-48
2023/09/15 10:54:21;;;;;;;;;;;36.10;43.70;;;28.46;45.58;95648.94;4987057;28;20146;-48
2023/09/15 10:56:48;;;;;;;;;;;35.80;43.60;;;28.25;47.14;95644.03;4981560;28;19939;-47
2023/09/15 10:59:17;;;;;;;;;;;35.50;43.60;;;27.71;47.71;95650.88;4996838;28;19917;-46
2023/09/15 11:01:45;;;;;;;;;;;35.20;43.60;;;27.45;47.01;95647.03;4994644;28;19917;-48
2023/09/15 11:04:13;;;;;;;;;;;35.00;43.50;;;27.12;48.53;95643.06;4992664;28;19948;-49
2023/09/15 11:06:39;;;;;;;;;;;34.80;43.40;;;27.30;48.68;95635.13;4993877;28;19909;-48
2023/09/15 11:09:06;;;;;;;;;;;35.00;43.30;;;27.71;47.02;95632.50;4992754;28;19917;-50
2023/09/15 11:11:32;;;;;;;;;;;35.50;43.30;;;27.90;47.08;95621.41;5009327;28;19909;-51
2023/09/15 11:14:00;;;;;;;;;;;35.90;42.40;;;28.12;46.25;95622.41;4981097;28;19919;-46